createdAt,value
2022-09-26T00:01:44.593Z,100679.25
2022-09-26T00:04:19.247Z,100678.38
2022-09-26T00:06:52.189Z,100663.25
2022-09-26T00:09:22.278Z,100668.88
2022-09-26T00:11:51.314Z,100657.91
2022-09-26T00:14:23.639Z,100652.06
2022-09-26T00:16:53.677Z,100646.69
2022-09-26T00:19:22.950Z,100638.09
2022-09-26T00:21:52.340Z,100625.84
2022-09-26T00:24:21.450Z,100633.53
2022-09-26T00:26:49.942Z,100624.00
2022-09-26T00:29:18.249Z,100617.19
2022-09-26T00:31:49.038Z,100613.06
2022-09-26T00:34:20.073Z,100602.22
2022-09-26T00:36:49.820Z,100596.75
2022-09-26T00:39:20.839Z,100587.22
2022-09-26T00:42:28.672Z,100583.66
2022-09-26T00:44:58.640Z,100578.09
2022-09-26T00:47:36.288Z,100572.16
2022-09-26T00:50:09.160Z,100572.88
2022-09-26T00:52:41.704Z,100563.09
2022-09-26T00:55:15.314Z,100559.06
2022-09-26T00:57:52.212Z,100555.81
2022-09-26T01:00:23.826Z,100544.03
2022-09-26T01:02:54.814Z,100535.00
2022-09-26T01:05:26.078Z,100527.56
2022-09-26T01:07:57.388Z,100522.56
2022-09-26T01:10:30.605Z,100515.94
2022-09-26T01:13:02.568Z,100503.00
2022-09-26T01:15:30.645Z,100508.25
2022-09-26T01:17:58.762Z,100502.25
2022-09-26T01:20:37.434Z,100490.19
2022-09-26T01:23:43.126Z,100487.47
2022-09-26T01:26:37.910Z,100488.50
2022-09-26T01:29:35.279Z,100485.56
2022-09-26T01:32:32.804Z,100478.78
2022-09-26T01:35:12.864Z,100479.25
2022-09-26T01:37:52.207Z,100475.66
2022-09-26T01:40:28.971Z,100471.38
2022-09-26T01:43:08.848Z,100470.44
2022-09-26T01:45:47.329Z,100461.00
2022-09-26T01:48:21.098Z,100457.91
2022-09-26T01:50:53.507Z,100458.56
2022-09-26T01:53:26.782Z,100457.13
2022-09-26T01:56:04.479Z,100455.75
2022-09-26T01:58:38.524Z,100446.31
2022-09-26T02:01:13.430Z,100454.31
2022-09-26T02:03:48.541Z,100441.97
2022-09-26T02:06:24.514Z,100447.34
2022-09-26T02:08:58.611Z,100443.75
2022-09-26T02:11:29.594Z,100440.09
2022-09-26T02:14:03.958Z,100433.22
2022-09-26T02:16:38.996Z,100428.63
2022-09-26T02:19:14.064Z,100433.13
2022-09-26T02:26:25.377Z,100422.03
2022-09-26T02:28:53.426Z,100427.59
2022-09-26T02:31:26.296Z,100411.38
2022-09-26T02:33:56.496Z,100411.94
2022-09-26T02:36:33.634Z,100406.56
2022-09-26T02:39:03.531Z,100399.78
2022-09-26T02:41:50.597Z,100395.63
2022-09-26T02:44:27.497Z,100391.28
2022-09-26T02:47:32.343Z,100383.97
2022-09-26T02:50:17.336Z,100374.00
2022-09-26T02:53:00.315Z,100361.19
2022-09-26T02:55:48.190Z,100358.53
2022-09-26T02:58:22.940Z,100347.31
2022-09-26T03:01:00.812Z,100335.16
2022-09-26T03:03:37.179Z,100332.41
2022-09-26T03:06:10.082Z,100324.34
2022-09-26T03:08:44.222Z,100319.44
2022-09-26T03:11:17.998Z,100310.75
2022-09-26T03:13:50.886Z,100305.84
2022-09-26T03:16:21.887Z,100304.84
2022-09-26T03:18:55.593Z,100304.94
2022-09-26T03:21:27.398Z,100295.03
2022-09-26T03:23:58.127Z,100295.97
2022-09-26T03:26:29.127Z,100299.59
2022-09-26T03:29:01.527Z,100289.03
2022-09-26T03:31:34.813Z,100284.34
2022-09-26T03:34:08.018Z,100270.88
2022-09-26T03:36:36.918Z,100275.03
2022-09-26T03:39:07.025Z,100270.13
2022-09-26T03:41:42.704Z,100272.41
2022-09-26T03:44:27.080Z,100265.34
2022-09-26T03:47:15.362Z,100254.25
2022-09-26T03:49:46.297Z,100247.75
2022-09-26T03:52:15.926Z,100241.16
2022-09-26T03:54:47.842Z,100232.69
2022-09-26T03:57:18.787Z,100225.31
2022-09-26T03:59:59.217Z,100222.13
2022-09-26T04:02:33.911Z,100218.88
2022-09-26T04:05:18.515Z,100216.84
2022-09-26T04:07:47.223Z,100205.53
2022-09-26T04:10:19.327Z,100201.56
2022-09-26T04:12:48.681Z,100188.25
2022-09-26T04:15:18.887Z,100186.00
2022-09-26T04:17:47.590Z,100181.03
2022-09-26T04:20:20.461Z,100171.34
2022-09-26T04:22:50.022Z,100166.19
2022-09-26T04:25:19.670Z,100156.66
2022-09-26T04:27:49.657Z,100157.06
2022-09-26T04:30:19.200Z,100149.88
2022-09-26T04:32:53.965Z,100142.66
2022-09-26T04:35:38.546Z,100131.28
2022-09-26T04:38:08.846Z,100129.31
2022-09-26T04:40:42.664Z,100124.41
2022-09-26T04:43:12.894Z,100127.50
2022-09-26T04:45:43.177Z,100110.47
2022-09-26T04:48:11.713Z,100113.59
2022-09-26T04:51:07.142Z,100106.84
2022-09-26T04:57:33.622Z,100099.06
2022-09-26T05:00:02.352Z,100090.97
2022-09-26T05:02:31.084Z,100088.97
2022-09-26T05:05:00.434Z,100091.66
2022-09-26T05:07:33.471Z,100089.50
2022-09-26T05:10:02.544Z,100071.47
2022-09-26T05:12:35.722Z,100076.16
2022-09-26T05:15:05.566Z,100070.31
2022-09-26T05:17:34.421Z,100059.94
2022-09-26T05:20:03.836Z,100057.84
2022-09-26T05:22:49.550Z,100051.72
2022-09-26T05:25:36.404Z,100052.50
2022-09-26T05:28:06.580Z,100044.81
2022-09-26T05:30:35.935Z,100045.09
2022-09-26T05:33:04.741Z,100038.88
2022-09-26T05:35:34.786Z,100035.69
2022-09-26T05:38:04.815Z,100031.16
2022-09-26T05:40:52.382Z,100039.78
2022-09-26T05:43:22.862Z,100029.97
2022-09-26T05:45:52.466Z,100024.44
2022-09-26T05:48:26.541Z,100025.56
2022-09-26T05:50:55.512Z,100024.31
2022-09-26T05:53:25.860Z,100024.31
2022-09-26T05:55:57.434Z,100017.81
2022-09-26T05:58:40.171Z,100004.75
2022-09-26T06:01:17.819Z,100000.78
2022-09-26T06:03:48.730Z,99997.13
2022-09-26T06:06:26.014Z,99999.94
2022-09-26T06:09:03.881Z,99993.31
2022-09-26T06:11:49.990Z,99992.75
2022-09-26T06:14:25.420Z,99981.84
2022-09-26T06:16:54.912Z,99985.78
2022-09-26T06:19:24.833Z,99971.28
2022-09-26T06:21:57.286Z,99971.13
2022-09-26T06:24:26.554Z,99965.06
2022-09-26T06:26:59.435Z,99964.50
2022-09-26T06:29:29.699Z,99959.97
2022-09-26T06:31:58.431Z,99951.44
2022-09-26T06:34:27.691Z,99957.50
2022-09-26T06:41:56.434Z,99951.88
2022-09-26T06:44:53.502Z,99948.53
2022-09-26T06:47:25.112Z,99955.78
2022-09-26T06:50:07.913Z,99948.94
2022-09-26T06:52:40.419Z,99943.03
2022-09-26T06:55:10.293Z,99931.44
2022-09-26T06:57:40.084Z,99940.66
2022-09-26T07:00:12.347Z,99928.28
2022-09-26T07:03:01.490Z,99923.88
2022-09-26T07:05:51.654Z,99918.31
2022-09-26T07:08:19.672Z,99908.50
2022-09-26T07:10:48.935Z,99910.97
2022-09-26T07:13:24.294Z,99904.22
2022-09-26T07:15:58.424Z,99894.06
2022-09-26T07:18:38.319Z,99901.75
2022-09-26T07:21:29.812Z,99891.28
2022-09-26T07:24:14.444Z,99887.38
2022-09-26T07:30:22.203Z,99895.84
2022-09-26T07:33:03.208Z,99871.31
2022-09-26T07:35:37.886Z,99876.09
2022-09-26T07:38:06.098Z,99875.19
2022-09-26T07:40:34.316Z,99872.91
2022-09-26T07:43:19.763Z,99861.88
2022-09-26T07:46:10.179Z,99858.50
2022-09-26T07:48:59.394Z,99852.84
2022-09-26T07:51:50.054Z,99849.63
2022-09-26T07:54:22.525Z,99854.88
2022-09-26T07:57:09.203Z,99847.16
2022-09-26T08:00:00.240Z,99842.66
2022-09-26T08:03:02.602Z,99840.22
2022-09-26T08:05:35.068Z,99837.69
2022-09-26T08:08:05.083Z,99831.44
2022-09-26T08:10:52.032Z,99828.94
2022-09-26T08:13:23.193Z,99822.84
2022-09-26T08:16:09.744Z,99818.19
2022-09-26T08:18:43.442Z,99809.78
2022-09-26T08:21:13.035Z,99801.91
2022-09-26T08:23:44.399Z,99798.81
2022-09-26T08:26:33.714Z,99802.97
2022-09-26T08:29:23.689Z,99784.72
2022-09-26T08:31:56.056Z,99786.47
2022-09-26T08:34:26.663Z,99784.38
2022-09-26T08:37:21.230Z,99769.44
2022-09-26T08:40:08.688Z,99779.91
2022-09-26T08:43:07.235Z,99772.22
2022-09-26T08:46:31.003Z,99782.78
2022-09-26T08:49:44.565Z,99772.22
2022-09-26T08:52:28.260Z,99796.16
2022-09-26T08:55:00.266Z,99777.75
2022-09-26T08:57:38.026Z,99783.00
2022-09-26T09:00:20.421Z,99775.44
2022-09-26T09:03:05.805Z,99776.88
2022-09-26T09:05:39.470Z,99780.97
2022-09-26T09:08:17.796Z,99776.78
2022-09-26T09:11:10.973Z,99765.69
2022-09-26T09:14:04.438Z,99757.09
2022-09-26T09:17:08.599Z,99762.78
2022-09-26T09:20:03.557Z,99752.06
2022-09-26T09:23:19.185Z,99757.59
2022-09-26T09:29:11.041Z,99754.94
2022-09-26T09:31:45.439Z,99736.28
2022-09-26T09:34:51.533Z,99733.91
2022-09-26T09:37:48.354Z,99732.75
2022-09-26T09:40:46.381Z,99730.50
2022-09-26T09:43:26.513Z,99729.13
2022-09-26T09:45:58.881Z,99732.75
2022-09-26T09:48:54.935Z,99722.34
2022-09-26T09:51:36.944Z,99714.28
2022-09-26T09:54:26.378Z,99721.75
2022-09-26T09:57:12.721Z,99710.41
2022-09-26T10:00:11.360Z,99704.16
2022-09-26T10:03:02.417Z,99704.13
2022-09-26T10:05:45.484Z,99704.72
2022-09-26T10:10:19.525Z,99703.56
2022-09-26T10:13:32.273Z,99692.44
2022-09-26T10:16:19.661Z,99696.00
2022-09-26T10:22:53.617Z,99689.81
2022-09-26T10:25:29.648Z,99693.72
2022-09-26T10:28:00.469Z,99701.06
2022-09-26T10:30:49.167Z,99691.47
2022-09-26T10:33:27.043Z,99690.09
2022-09-26T10:36:19.706Z,99680.91
2022-09-26T10:39:12.057Z,99683.00
2022-09-26T10:41:42.553Z,99673.09
2022-09-26T10:44:31.321Z,99673.63
2022-09-26T10:47:14.378Z,99672.84
2022-09-26T10:50:11.876Z,99661.47
2022-09-26T10:53:06.362Z,99668.94
2022-09-26T10:55:39.970Z,99671.81
2022-09-26T10:58:16.538Z,99667.19
2022-09-26T11:00:49.367Z,99665.72
2022-09-26T11:03:26.225Z,99671.38
2022-09-26T11:06:26.650Z,99665.09
2022-09-26T11:09:03.615Z,99662.94
2022-09-26T11:11:52.463Z,99660.63
2022-09-26T11:14:30.532Z,99647.53
2022-09-26T11:17:03.564Z,99644.91
2022-09-26T11:19:45.896Z,99647.31
2022-09-26T11:22:26.584Z,99651.66
2022-09-26T11:25:06.205Z,99628.94
2022-09-26T11:27:43.906Z,99627.91
2022-09-26T11:30:21.361Z,99631.06
2022-09-26T11:33:14.238Z,99624.09
2022-09-26T11:36:15.328Z,99618.78
2022-09-26T11:38:48.777Z,99626.13
2022-09-26T11:41:49.067Z,99623.28
2022-09-26T11:44:58.532Z,99611.72
2022-09-26T11:47:59.340Z,99611.44
2022-09-26T11:50:55.845Z,99612.91
2022-09-26T11:53:47.601Z,99606.66
2022-09-26T12:00:27.886Z,99599.75
2022-09-26T12:03:24.111Z,99595.75
2022-09-26T12:05:56.638Z,99588.41
2022-09-26T12:08:40.856Z,99593.16
2022-09-26T12:11:24.555Z,99592.41
2022-09-26T12:14:01.355Z,99589.88
2022-09-26T12:16:37.356Z,99581.91
2022-09-26T12:19:16.587Z,99590.75
2022-09-26T12:22:16.753Z,99587.16
2022-09-26T12:24:53.793Z,99573.53
2022-09-26T12:27:33.783Z,99577.31
2022-09-26T12:30:11.158Z,99575.38
2022-09-26T12:33:25.778Z,99577.78
2022-09-26T12:36:02.325Z,99573.34
2022-09-26T12:38:43.117Z,99562.41
2022-09-26T12:46:21.656Z,99561.16
2022-09-26T12:48:58.748Z,99564.72
2022-09-26T12:51:42.990Z,99564.13
2022-09-26T12:54:24.744Z,99565.34
2022-09-26T12:56:55.469Z,99564.09
2022-09-26T12:59:41.561Z,99557.81
2022-09-26T13:02:38.996Z,99554.03
2022-09-26T13:05:37.634Z,99552.34
2022-09-26T13:08:13.881Z,99552.53
2022-09-26T13:10:55.971Z,99544.59
2022-09-26T13:13:40.343Z,99540.16
2022-09-26T13:16:26.508Z,99537.44
2022-09-26T13:19:03.546Z,99523.16
2022-09-26T13:26:27.341Z,99519.38
2022-09-26T13:29:17.114Z,99514.69
2022-09-26T13:31:55.436Z,99526.69
2022-09-26T13:34:32.543Z,99512.19
2022-09-26T13:37:01.595Z,99523.78
2022-09-26T13:39:39.929Z,99510.31
2022-09-26T13:42:17.315Z,99515.09
2022-09-26T13:44:59.318Z,99511.13
2022-09-26T13:47:40.217Z,99517.84
2022-09-26T13:50:23.301Z,99512.19
2022-09-26T13:53:06.721Z,99499.97
2022-09-26T13:55:36.624Z,99494.47
2022-09-26T13:58:20.067Z,99478.88
2022-09-26T14:00:54.649Z,99486.63
2022-09-26T14:03:40.188Z,99496.97
2022-09-26T14:06:29.293Z,99492.91
2022-09-26T14:09:29.713Z,99490.19
2022-09-26T14:12:33.520Z,99483.75
2022-09-26T14:15:18.380Z,99487.72
2022-09-26T14:18:22.159Z,99476.19
2022-09-26T14:21:19.772Z,99485.00
2022-09-26T14:24:11.852Z,99477.22
2022-09-26T14:26:43.438Z,99478.84
2022-09-26T14:29:33.571Z,99473.53
2022-09-26T14:32:06.250Z,99471.22
2022-09-26T14:34:41.841Z,99466.41
2022-09-26T14:37:28.494Z,99463.25
2022-09-26T14:40:17.838Z,99462.69
2022-09-26T14:42:54.372Z,99455.69
2022-09-26T14:45:27.084Z,99452.91
2022-09-26T14:48:07.945Z,99458.66
2022-09-26T14:50:44.924Z,99451.47
2022-09-26T14:53:22.727Z,99446.66
2022-09-26T14:56:00.179Z,99438.72
2022-09-26T14:58:35.454Z,99433.00
2022-09-26T15:01:06.798Z,99426.72
2022-09-26T15:03:35.642Z,99425.19
2022-09-26T15:06:05.360Z,99432.53
2022-09-26T15:08:39.444Z,99417.22
2022-09-26T15:11:09.307Z,99415.78
2022-09-26T15:13:40.485Z,99416.56
2022-09-26T15:16:22.698Z,99413.03
2022-09-26T15:18:55.456Z,99414.66
2022-09-26T15:21:32.965Z,99411.16
2022-09-26T15:24:04.601Z,99409.31
2022-09-26T15:26:36.971Z,99411.09
2022-09-26T15:29:08.993Z,99411.31
2022-09-26T15:31:42.412Z,99415.00
2022-09-26T15:34:17.641Z,99420.25
2022-09-26T15:36:49.798Z,99424.97
2022-09-26T15:39:37.730Z,99427.19
2022-09-26T15:42:41.961Z,99424.03
2022-09-26T15:45:29.961Z,99415.34
2022-09-26T15:47:59.874Z,99416.41
2022-09-26T15:50:32.235Z,99412.53
2022-09-26T15:53:08.132Z,99415.78
2022-09-26T15:55:43.461Z,99419.38
2022-09-26T15:58:18.168Z,99424.59
2022-09-26T16:00:49.565Z,99429.44
2022-09-26T16:03:40.433Z,99435.28
2022-09-26T16:06:28.430Z,99433.63
2022-09-26T16:09:02.379Z,99429.91
2022-09-26T16:11:30.818Z,99421.34
2022-09-26T16:14:01.233Z,99436.00
2022-09-26T16:16:33.065Z,99438.47
2022-09-26T16:19:05.328Z,99429.91
2022-09-26T16:21:36.535Z,99434.25
2022-09-26T16:24:28.699Z,99432.09
2022-09-26T16:26:59.579Z,99431.91
2022-09-26T16:29:34.699Z,99427.88
2022-09-26T16:32:04.233Z,99424.03
2022-09-26T16:34:35.616Z,99428.63
2022-09-26T16:42:16.782Z,99422.34
2022-09-26T16:44:55.386Z,99420.25
2022-09-26T16:47:41.662Z,99426.53
2022-09-26T16:50:31.675Z,99422.84
2022-09-26T16:53:04.832Z,99422.91
2022-09-26T16:55:37.504Z,99426.66
2022-09-26T16:58:06.625Z,99419.03
2022-09-26T17:00:56.316Z,99421.50
2022-09-26T17:03:26.328Z,99428.97
2022-09-26T17:05:56.931Z,99420.31
2022-09-26T17:08:27.695Z,99430.16
2022-09-26T17:11:00.208Z,99426.63
2022-09-26T17:13:31.015Z,99423.59
2022-09-26T17:16:03.703Z,99423.44
2022-09-26T17:18:34.071Z,99421.50
2022-09-26T17:21:02.853Z,99421.16
2022-09-26T17:23:42.296Z,99417.38
2022-09-26T17:26:19.907Z,99409.22
2022-09-26T17:28:48.535Z,99408.22
2022-09-26T17:31:20.775Z,99409.06
2022-09-26T17:33:52.442Z,99409.66
2022-09-26T17:36:24.368Z,99410.91
2022-09-26T17:38:53.686Z,99409.00
2022-09-26T17:41:23.219Z,99415.53
2022-09-26T17:43:58.775Z,99414.25
2022-09-26T17:46:31.076Z,99410.47
2022-09-26T17:49:05.049Z,99410.75
2022-09-26T17:51:33.167Z,99415.88
2022-09-26T17:54:01.365Z,99408.66
2022-09-26T17:56:31.664Z,99411.78
2022-09-26T17:59:01.250Z,99417.44
2022-09-26T18:01:34.359Z,99412.59
2022-09-26T18:04:06.385Z,99413.44
2022-09-26T18:06:37.078Z,99413.94
2022-09-26T18:09:10.131Z,99415.66
2022-09-26T18:11:38.942Z,99416.66
2022-09-26T18:14:08.246Z,99422.78
2022-09-26T18:16:38.421Z,99429.75
2022-09-26T18:19:07.832Z,99436.22
2022-09-26T18:21:36.483Z,99428.84
2022-09-26T18:24:06.834Z,99436.91
2022-09-26T18:26:42.309Z,99427.38
2022-09-26T18:29:14.690Z,99427.16
2022-09-26T18:31:47.394Z,99425.88
2022-09-26T18:34:18.916Z,99415.94
2022-09-26T18:36:48.866Z,99422.28
2022-09-26T18:39:18.495Z,99424.16
2022-09-26T18:41:49.489Z,99422.03
2022-09-26T18:44:20.360Z,99423.53
2022-09-26T18:46:49.980Z,99419.31
2022-09-26T18:49:19.785Z,99427.06
2022-09-26T18:51:49.000Z,99419.47
2022-09-26T18:54:18.606Z,99421.19
2022-09-26T18:57:19.378Z,99423.94
2022-09-26T18:59:49.905Z,99423.28
2022-09-26T19:02:23.733Z,99421.44
2022-09-26T19:04:52.906Z,99428.16
2022-09-26T19:07:22.508Z,99417.63
2022-09-26T19:09:51.530Z,99427.50
2022-09-26T19:12:20.337Z,99426.53
2022-09-26T19:14:48.743Z,99425.69
2022-09-26T19:17:17.822Z,99429.91
2022-09-26T19:19:47.749Z,99423.38
2022-09-26T19:22:18.385Z,99420.19
2022-09-26T19:24:49.991Z,99426.91
2022-09-26T19:27:22.669Z,99424.59
2022-09-26T19:29:59.954Z,99427.31
2022-09-26T19:32:33.278Z,99426.97
2022-09-26T19:35:06.615Z,99442.09
2022-09-26T19:37:34.780Z,99438.75
2022-09-26T19:40:02.972Z,99449.97
2022-09-26T19:42:32.793Z,99448.53
2022-09-26T19:45:01.849Z,99449.38
2022-09-26T19:47:33.422Z,99456.53
2022-09-26T19:50:03.986Z,99449.56
2022-09-26T19:52:33.680Z,99450.63
2022-09-26T19:55:02.678Z,99441.16
2022-09-26T19:57:31.062Z,99439.66
2022-09-26T19:59:59.419Z,99437.97
2022-09-26T20:02:33.814Z,99438.16
2022-09-26T20:05:14.693Z,99428.25
2022-09-26T20:07:42.920Z,99431.81
2022-09-26T20:10:17.905Z,99426.34
2022-09-26T20:12:48.376Z,99426.97
2022-09-26T20:15:20.185Z,99425.91
2022-09-26T20:17:49.418Z,99415.13
2022-09-26T20:20:24.582Z,99417.03
2022-09-26T20:22:55.371Z,99427.31
2022-09-26T20:25:27.365Z,99423.56
2022-09-26T20:27:56.219Z,99418.34
2022-09-26T20:30:43.766Z,99419.03
2022-09-26T20:33:13.288Z,99420.81
2022-09-26T20:35:45.556Z,99412.84
2022-09-26T20:38:19.926Z,99419.97
2022-09-26T20:40:49.133Z,99422.09
2022-09-26T20:43:25.821Z,99421.84
2022-09-26T20:45:54.843Z,99415.78
2022-09-26T20:48:25.780Z,99417.06
2022-09-26T20:50:55.764Z,99414.94
2022-09-26T20:53:26.396Z,99418.50
2022-09-26T20:55:56.207Z,99411.53
2022-09-26T20:58:25.057Z,99395.94
2022-09-26T21:00:53.891Z,99400.13
2022-09-26T21:03:26.206Z,99405.59
2022-09-26T21:05:58.043Z,99406.47
2022-09-26T21:08:30.514Z,99408.13
2022-09-26T21:10:59.665Z,99398.28
2022-09-26T21:13:30.062Z,99413.25
2022-09-26T21:15:59.292Z,99404.78
2022-09-26T21:18:31.818Z,99406.75
2022-09-26T21:21:06.404Z,99411.78
2022-09-26T21:23:55.268Z,99416.66
2022-09-26T21:26:25.617Z,99422.53
2022-09-26T21:28:55.069Z,99410.84
2022-09-26T21:31:28.448Z,99404.31
2022-09-26T21:34:01.871Z,99414.69
2022-09-26T21:36:35.306Z,99410.88
2022-09-26T21:39:03.908Z,99407.75
2022-09-26T21:41:32.138Z,99399.94
2022-09-26T21:44:03.727Z,99405.41
2022-09-26T21:46:33.557Z,99407.50
2022-09-26T21:49:02.385Z,99405.59
2022-09-26T21:51:32.721Z,99405.81
2022-09-26T21:54:05.532Z,99401.38
2022-09-26T21:56:39.990Z,99403.06
2022-09-26T21:59:08.767Z,99410.84
2022-09-26T22:01:38.621Z,99412.06
2022-09-26T22:04:06.857Z,99404.22
2022-09-26T22:06:36.068Z,99412.03
2022-09-26T22:09:04.763Z,99413.25
2022-09-26T22:11:34.048Z,99411.78
2022-09-26T22:14:02.665Z,99413.69
2022-09-26T22:16:31.633Z,99414.75
2022-09-26T22:19:00.388Z,99416.25
2022-09-26T22:21:30.904Z,99416.94
2022-09-26T22:24:02.918Z,99412.13
2022-09-26T22:26:31.327Z,99417.38
2022-09-26T22:28:59.745Z,99416.53
2022-09-26T22:31:29.394Z,99411.91
2022-09-26T22:34:01.025Z,99411.03
2022-09-26T22:36:30.943Z,99409.75
2022-09-26T22:39:01.629Z,99405.81
2022-09-26T22:46:14.948Z,99402.44
2022-09-26T22:48:45.444Z,99397.00
2022-09-26T22:51:14.857Z,99399.53
2022-09-26T22:53:44.834Z,99399.53
2022-09-26T22:56:15.745Z,99387.50
2022-09-26T22:58:46.613Z,99394.03
2022-09-26T23:01:18.722Z,99399.94
2022-09-26T23:03:47.136Z,99397.00
2022-09-26T23:06:15.265Z,99393.81
2022-09-26T23:12:47.943Z,99398.63
2022-09-26T23:15:15.937Z,99395.00
2022-09-26T23:17:43.905Z,99398.56
2022-09-26T23:20:11.905Z,99392.88
2022-09-26T23:22:40.117Z,99391.38
2022-09-26T23:25:09.495Z,99391.16
2022-09-26T23:27:37.697Z,99391.38
2022-09-26T23:30:08.764Z,99387.41
2022-09-26T23:32:36.866Z,99384.31
2022-09-26T23:35:05.758Z,99394.81
2022-09-26T23:37:33.721Z,99386.41
2022-09-26T23:40:02.052Z,99388.94
2022-09-26T23:42:30.642Z,99391.00
2022-09-26T23:44:58.877Z,99392.69
2022-09-26T23:47:28.312Z,99389.09
2022-09-26T23:49:56.374Z,99390.16
2022-09-26T23:52:24.496Z,99391.22
2022-09-26T23:54:52.792Z,99395.66
2022-09-26T23:57:21.214Z,99402.84
2022-09-26T23:59:49.277Z,99404.75
